Yuci, China
Current Conditions -  °F | °C
As of 9:00 AM on Sunday 26 Oct 2014 (Local Time) from ZBYN Reporting Station
Haze Haze  
Wind Chill: 55°   Ceiling: Unl
Heat Index: 55°   Visibility: 2.5mi
Dew Point: 39°   Wind: 7mph
Humidity: 54%   Direction: 330°NNW
Pressure: 30.21"   Gusts: NA
Location:  37.68°N, 112.73°E
Report Text: ZBYN 260100Z 33003MPS 310V020 4000 HZ NSC 13/04 Q1023 NOSIG
Loading
Personal Weather Stations






























Interactive Weather Map
Tropical Storm Tracking
New forecast layout! Learn more

10-Day Weather Forecast

Advertisements
Track Severe Weather on mobile